DAL1351 KLAX-KRNO
Flight info
| Callsign | DAL1351 |
|---|---|
| Flight time | 1h 12m |
| Altitude | 32000 |
| Route | LADYJ4 CSTRO FMG |
| Aircraft | B739/M-SDE2E3FGHIRWXY/LB1 |
Departure
| Time | 2026-05-05 22:33 |
|---|---|
| Airport | Los Angeles International Airport (KLAX) |
Arrival
| Time | 2026-05-05 23:45 |
|---|---|
| Airport | Reno Tahoe International Airport (KRNO) |
| Time | Latitude | Longitude | Altitude | Speed | Heading |
|---|---|---|---|---|---|
| 2026-05-05 22:07 | 33.94638 | -118.40319 | 125 ft | 0 kts | 263° |
| 2026-05-05 22:24 | 33.94640 | -118.40300 | 121 ft | 4 kts | 264° |
| 2026-05-05 22:25 | 33.94641 | -118.40268 | 123 ft | 4 kts | 279° |
| 2026-05-05 22:25 | 33.94632 | -118.40244 | 123 ft | 4 kts | 341° |
| 2026-05-05 22:25 | 33.94627 | -118.40242 | 125 ft | 0 kts | 352° |
| 2026-05-05 22:29 | 33.94628 | -118.40242 | 125 ft | 1 kts | 352° |
| 2026-05-05 22:29 | 33.94670 | -118.40249 | 123 ft | 11 kts | 352° |
| 2026-05-05 22:29 | 33.94748 | -118.40263 | 122 ft | 11 kts | 353° |
| 2026-05-05 22:30 | 33.94824 | -118.40281 | 123 ft | 11 kts | 340° |
| 2026-05-05 22:30 | 33.94895 | -118.40282 | 124 ft | 11 kts | 45° |
| 2026-05-05 22:30 | 33.94908 | -118.40184 | 123 ft | 14 kts | 83° |
| 2026-05-05 22:30 | 33.94921 | -118.40058 | 123 ft | 15 kts | 83° |
| 2026-05-05 22:31 | 33.94935 | -118.39947 | 123 ft | 12 kts | 69° |
| 2026-05-05 22:31 | 33.95007 | -118.39921 | 122 ft | 11 kts | 351° |
| 2026-05-05 22:31 | 33.95042 | -118.39951 | 122 ft | 5 kts | 288° |
| 2026-05-05 22:31 | 33.95040 | -118.39979 | 122 ft | 1 kts | 262° |
| 2026-05-05 22:32 | 33.95037 | -118.40008 | 124 ft | 8 kts | 262° |
| 2026-05-05 22:32 | 33.95007 | -118.40296 | 125 ft | 75 kts | 263° |
| 2026-05-05 22:32 | 33.94909 | -118.41238 | 126 ft | 147 kts | 262° |
| 2026-05-05 22:32 | 33.94768 | -118.42651 | 401 ft | 181 kts | 261° |
| 2026-05-05 22:33 | 33.94583 | -118.44156 | 1398 ft | 181 kts | 262° |
| 2026-05-05 22:33 | 33.94413 | -118.45641 | 2325 ft | 183 kts | 263° |
| 2026-05-05 22:33 | 33.94313 | -118.47251 | 2664 ft | 202 kts | 267° |
| 2026-05-05 22:33 | 33.94265 | -118.49041 | 2978 ft | 220 kts | 267° |
| 2026-05-05 22:34 | 33.94217 | -118.50997 | 3228 ft | 245 kts | 267° |
| 2026-05-05 22:34 | 33.94078 | -118.53102 | 3821 ft | 257 kts | 264° |
| 2026-05-05 22:34 | 33.93898 | -118.55276 | 4518 ft | 266 kts | 264° |
| 2026-05-05 22:34 | 33.93714 | -118.57519 | 4969 ft | 273 kts | 264° |
| 2026-05-05 22:35 | 33.93531 | -118.59794 | 4979 ft | 271 kts | 264° |
| 2026-05-05 22:35 | 33.93582 | -118.62033 | 4975 ft | 267 kts | 286° |
| 2026-05-05 22:35 | 33.94461 | -118.63927 | 5008 ft | 264 kts | 312° |
| 2026-05-05 22:35 | 33.95899 | -118.65298 | 5013 ft | 265 kts | 327° |
| 2026-05-05 22:36 | 33.97484 | -118.66466 | 5001 ft | 267 kts | 327° |
| 2026-05-05 22:36 | 33.99133 | -118.67509 | 4972 ft | 271 kts | 343° |
| 2026-05-05 22:36 | 34.01005 | -118.67681 | 5006 ft | 271 kts | 0° |
| 2026-05-05 22:36 | 34.02891 | -118.67554 | 4984 ft | 271 kts | 2° |
| 2026-05-05 22:37 | 34.04771 | -118.67411 | 4983 ft | 270 kts | 1° |
| 2026-05-05 22:37 | 34.06650 | -118.67279 | 5000 ft | 270 kts | 2° |
| 2026-05-05 22:37 | 34.08524 | -118.67085 | 5371 ft | 272 kts | 8° |
| 2026-05-05 22:37 | 34.10387 | -118.66658 | 6285 ft | 271 kts | 11° |
| 2026-05-05 22:38 | 34.12223 | -118.66172 | 7249 ft | 266 kts | 13° |
| 2026-05-05 22:38 | 34.14035 | -118.65683 | 8094 ft | 270 kts | 10° |
| 2026-05-05 22:38 | 34.15893 | -118.65251 | 8895 ft | 270 kts | 9° |
| 2026-05-05 22:38 | 34.17757 | -118.64817 | 9693 ft | 275 kts | 10° |
| 2026-05-05 22:39 | 34.19620 | -118.64381 | 10419 ft | 279 kts | 9° |
| 2026-05-05 22:39 | 34.21621 | -118.63908 | 10686 ft | 300 kts | 10° |
| 2026-05-05 22:39 | 34.23747 | -118.63421 | 10913 ft | 321 kts | 7° |
| 2026-05-05 22:39 | 34.26016 | -118.63465 | 11316 ft | 334 kts | 349° |
| 2026-05-05 22:40 | 34.28261 | -118.64030 | 12049 ft | 335 kts | 348° |
| 2026-05-05 22:40 | 34.30563 | -118.64610 | 12759 ft | 339 kts | 348° |
| 2026-05-05 22:40 | 34.32876 | -118.65167 | 13504 ft | 341 kts | 349° |
| 2026-05-05 22:40 | 34.35234 | -118.65717 | 14078 ft | 347 kts | 349° |
| 2026-05-05 22:41 | 34.37625 | -118.66266 | 14636 ft | 354 kts | 349° |
| 2026-05-05 22:41 | 34.40070 | -118.66826 | 15142 ft | 360 kts | 349° |
| 2026-05-05 22:41 | 34.42540 | -118.67389 | 15776 ft | 363 kts | 349° |
| 2026-05-05 22:41 | 34.45039 | -118.67915 | 16418 ft | 365 kts | 351° |
| 2026-05-05 22:42 | 34.47568 | -118.68405 | 16962 ft | 371 kts | 351° |
| 2026-05-05 22:42 | 34.49261 | -118.68727 | 17380 ft | 373 kts | 351° |
| 2026-05-05 22:42 | 34.51853 | -118.69220 | 17863 ft | 379 kts | 351° |
| 2026-05-05 22:42 | 34.54472 | -118.69723 | 18435 ft | 383 kts | 351° |
| 2026-05-05 22:43 | 34.57099 | -118.70232 | 19098 ft | 380 kts | 351° |
| 2026-05-05 22:43 | 34.59707 | -118.70740 | 19736 ft | 381 kts | 351° |
| 2026-05-05 22:43 | 34.62329 | -118.71253 | 20433 ft | 378 kts | 352° |
| 2026-05-05 22:43 | 34.64926 | -118.71762 | 21089 ft | 378 kts | 352° |
| 2026-05-05 22:44 | 34.67521 | -118.72271 | 21745 ft | 378 kts | 352° |
| 2026-05-05 22:44 | 34.70120 | -118.72780 | 22321 ft | 379 kts | 352° |
| 2026-05-05 22:44 | 34.72704 | -118.73559 | 22634 ft | 389 kts | 337° |
| 2026-05-05 22:44 | 34.75089 | -118.75162 | 23148 ft | 393 kts | 332° |
| 2026-05-05 22:45 | 34.77446 | -118.76828 | 23515 ft | 398 kts | 332° |
| 2026-05-05 22:45 | 34.79854 | -118.78512 | 24052 ft | 399 kts | 332° |
| 2026-05-05 22:45 | 34.82286 | -118.80198 | 24341 ft | 406 kts | 333° |
| 2026-05-05 22:45 | 34.84751 | -118.81903 | 24790 ft | 407 kts | 332° |
| 2026-05-05 22:46 | 34.87223 | -118.83606 | 25128 ft | 411 kts | 333° |
| 2026-05-05 22:46 | 34.89722 | -118.85325 | 25591 ft | 412 kts | 333° |
| 2026-05-05 22:46 | 34.92224 | -118.87045 | 25986 ft | 415 kts | 333° |
| 2026-05-05 22:46 | 34.94749 | -118.88780 | 26348 ft | 418 kts | 333° |
| 2026-05-05 22:47 | 34.97294 | -118.90532 | 26727 ft | 421 kts | 333° |
| 2026-05-05 22:47 | 34.99850 | -118.92294 | 27118 ft | 424 kts | 334° |
| 2026-05-05 22:47 | 35.02394 | -118.94049 | 27524 ft | 426 kts | 335° |
| 2026-05-05 22:47 | 35.04976 | -118.95833 | 28016 ft | 424 kts | 335° |
| 2026-05-05 22:48 | 35.07519 | -118.97595 | 28770 ft | 417 kts | 335° |
| 2026-05-05 22:48 | 35.10044 | -118.99342 | 29375 ft | 415 kts | 336° |
| 2026-05-05 22:48 | 35.12566 | -119.01087 | 29816 ft | 416 kts | 336° |
| 2026-05-05 22:48 | 35.15088 | -119.02830 | 30202 ft | 417 kts | 336° |
| 2026-05-05 22:49 | 35.17607 | -119.04575 | 30607 ft | 416 kts | 335° |
| 2026-05-05 22:49 | 35.20124 | -119.06320 | 30979 ft | 415 kts | 337° |
| 2026-05-05 22:49 | 35.22610 | -119.08045 | 31321 ft | 416 kts | 336° |
| 2026-05-05 22:49 | 35.25127 | -119.09792 | 31648 ft | 416 kts | 336° |
| 2026-05-05 22:50 | 35.27645 | -119.11542 | 31992 ft | 417 kts | 336° |
| 2026-05-05 22:50 | 35.32729 | -119.15078 | 32034 ft | 421 kts | 336° |
| 2026-05-05 22:51 | 35.37804 | -119.18617 | 32019 ft | 416 kts | 336° |
| 2026-05-05 22:51 | 35.42812 | -119.22112 | 32030 ft | 413 kts | 338° |
| 2026-05-05 22:51 | 35.45401 | -119.23492 | 32013 ft | 400 kts | 353° |
| 2026-05-05 22:52 | 35.48113 | -119.23972 | 32050 ft | 392 kts | 0° |
| 2026-05-05 22:52 | 35.53570 | -119.24472 | 32044 ft | 392 kts | 1° |
| 2026-05-05 22:53 | 35.59001 | -119.24936 | 32003 ft | 393 kts | 360° |
| 2026-05-05 22:53 | 35.64452 | -119.25510 | 32038 ft | 392 kts | 2° |
| 2026-05-05 22:54 | 35.69897 | -119.26000 | 32041 ft | 391 kts | 2° |
| 2026-05-05 22:54 | 35.75311 | -119.26505 | 32045 ft | 391 kts | 1° |
| 2026-05-05 22:55 | 35.80739 | -119.27029 | 32028 ft | 390 kts | 2° |
| 2026-05-05 22:55 | 35.86100 | -119.27555 | 32044 ft | 389 kts | 2° |
| 2026-05-05 22:56 | 35.91509 | -119.28089 | 32059 ft | 389 kts | 2° |
| 2026-05-05 22:56 | 35.96905 | -119.28623 | 32056 ft | 389 kts | 2° |
| 2026-05-05 22:57 | 36.02314 | -119.29159 | 32052 ft | 389 kts | 2° |
| 2026-05-05 22:57 | 36.07719 | -119.29695 | 32053 ft | 390 kts | 2° |
| 2026-05-05 22:58 | 36.13133 | -119.30232 | 32059 ft | 390 kts | 2° |
| 2026-05-05 22:58 | 36.18547 | -119.30770 | 32050 ft | 390 kts | 2° |
| 2026-05-05 22:59 | 36.23962 | -119.31309 | 32044 ft | 390 kts | 2° |
| 2026-05-05 22:59 | 36.29386 | -119.31850 | 32054 ft | 390 kts | 2° |
| 2026-05-05 23:00 | 36.37460 | -119.32653 | 32059 ft | 390 kts | 2° |
| 2026-05-05 23:00 | 36.42887 | -119.33197 | 32056 ft | 390 kts | 2° |
| 2026-05-05 23:01 | 36.48290 | -119.33741 | 32041 ft | 389 kts | 3° |
| 2026-05-05 23:01 | 36.53691 | -119.34285 | 32047 ft | 388 kts | 3° |
| 2026-05-05 23:02 | 36.59068 | -119.34826 | 32043 ft | 387 kts | 3° |
| 2026-05-05 23:02 | 36.64439 | -119.35366 | 32022 ft | 387 kts | 4° |
| 2026-05-05 23:03 | 36.69793 | -119.35906 | 32034 ft | 386 kts | 3° |
| 2026-05-05 23:03 | 36.75136 | -119.36445 | 32036 ft | 385 kts | 4° |
| 2026-05-05 23:04 | 36.80466 | -119.36984 | 32035 ft | 384 kts | 4° |
| 2026-05-05 23:04 | 36.85808 | -119.37524 | 32040 ft | 385 kts | 3° |
| 2026-05-05 23:05 | 36.91126 | -119.38062 | 32021 ft | 386 kts | 3° |
| 2026-05-05 23:05 | 36.96471 | -119.38605 | 32035 ft | 386 kts | 3° |
| 2026-05-05 23:06 | 37.01822 | -119.39149 | 32032 ft | 386 kts | 3° |
| 2026-05-05 23:06 | 37.07176 | -119.39694 | 31973 ft | 386 kts | 4° |
| 2026-05-05 23:07 | 37.12517 | -119.40238 | 32015 ft | 385 kts | 3° |
| 2026-05-05 23:07 | 37.17865 | -119.40783 | 32015 ft | 385 kts | 4° |
| 2026-05-05 23:08 | 37.23206 | -119.41329 | 32013 ft | 385 kts | 4° |
| 2026-05-05 23:08 | 37.28550 | -119.41877 | 32008 ft | 384 kts | 3° |
| 2026-05-05 23:09 | 37.33883 | -119.42424 | 32006 ft | 385 kts | 3° |
| 2026-05-05 23:09 | 37.39191 | -119.42968 | 32000 ft | 386 kts | 3° |
| 2026-05-05 23:10 | 37.44539 | -119.43517 | 32012 ft | 386 kts | 3° |
| 2026-05-05 23:10 | 37.49890 | -119.44068 | 31996 ft | 385 kts | 3° |
| 2026-05-05 23:11 | 37.55231 | -119.44620 | 31997 ft | 385 kts | 3° |
| 2026-05-05 23:11 | 37.60586 | -119.45173 | 31995 ft | 385 kts | 3° |
| 2026-05-05 23:12 | 37.65932 | -119.45724 | 31987 ft | 386 kts | 3° |
| 2026-05-05 23:12 | 37.71277 | -119.46277 | 31975 ft | 386 kts | 3° |
| 2026-05-05 23:13 | 37.76600 | -119.46829 | 31978 ft | 386 kts | 2° |
| 2026-05-05 23:13 | 37.81942 | -119.47385 | 31985 ft | 386 kts | 3° |
| 2026-05-05 23:14 | 37.87285 | -119.47940 | 31973 ft | 384 kts | 2° |
| 2026-05-05 23:14 | 37.92601 | -119.48485 | 31984 ft | 384 kts | 2° |
| 2026-05-05 23:15 | 37.97927 | -119.49048 | 31999 ft | 383 kts | 3° |
| 2026-05-05 23:15 | 38.03242 | -119.49605 | 31991 ft | 383 kts | 2° |
| 2026-05-05 23:16 | 38.08556 | -119.50166 | 31971 ft | 382 kts | 2° |
| 2026-05-05 23:16 | 38.11164 | -119.50445 | 31936 ft | 369 kts | 2° |
| 2026-05-05 23:16 | 38.13662 | -119.50720 | 31963 ft | 353 kts | 2° |
| 2026-05-05 23:17 | 38.16071 | -119.50975 | 31650 ft | 347 kts | 3° |
| 2026-05-05 23:17 | 38.18489 | -119.51229 | 31246 ft | 344 kts | 3° |
| 2026-05-05 23:17 | 38.20832 | -119.51471 | 30901 ft | 340 kts | 3° |
| 2026-05-05 23:17 | 38.23218 | -119.51713 | 30477 ft | 338 kts | 3° |
| 2026-05-05 23:18 | 38.25524 | -119.51950 | 30073 ft | 337 kts | 3° |
| 2026-05-05 23:18 | 38.27851 | -119.52187 | 29583 ft | 335 kts | 3° |
| 2026-05-05 23:18 | 38.30170 | -119.52423 | 29168 ft | 332 kts | 2° |
| 2026-05-05 23:18 | 38.32470 | -119.52671 | 28716 ft | 331 kts | 2° |
| 2026-05-05 23:19 | 38.34752 | -119.52917 | 28344 ft | 327 kts | 2° |
| 2026-05-05 23:19 | 38.37005 | -119.53156 | 27917 ft | 324 kts | 2° |
| 2026-05-05 23:19 | 38.39246 | -119.53394 | 27515 ft | 321 kts | 2° |
| 2026-05-05 23:19 | 38.41464 | -119.53626 | 27137 ft | 318 kts | 2° |
| 2026-05-05 23:20 | 38.43668 | -119.53859 | 26732 ft | 317 kts | 2° |
| 2026-05-05 23:20 | 38.45856 | -119.54091 | 26341 ft | 315 kts | 2° |
| 2026-05-05 23:20 | 38.48038 | -119.54321 | 25936 ft | 314 kts | 1° |
| 2026-05-05 23:20 | 38.50215 | -119.54553 | 25578 ft | 311 kts | 1° |
| 2026-05-05 23:21 | 38.52367 | -119.54780 | 25191 ft | 311 kts | 1° |
| 2026-05-05 23:21 | 38.54521 | -119.55008 | 24815 ft | 309 kts | 1° |
| 2026-05-05 23:21 | 38.56663 | -119.55234 | 24458 ft | 308 kts | 1° |
| 2026-05-05 23:21 | 38.58799 | -119.55458 | 24052 ft | 307 kts | 1° |
| 2026-05-05 23:22 | 38.60898 | -119.55682 | 23699 ft | 306 kts | 1° |
| 2026-05-05 23:22 | 38.63031 | -119.55909 | 23269 ft | 306 kts | 0° |
| 2026-05-05 23:22 | 38.65152 | -119.56134 | 22856 ft | 306 kts | 0° |
| 2026-05-05 23:22 | 38.67264 | -119.56358 | 22458 ft | 304 kts | 0° |
| 2026-05-05 23:23 | 38.69365 | -119.56583 | 22074 ft | 302 kts | 0° |
| 2026-05-05 23:23 | 38.71455 | -119.56807 | 21728 ft | 300 kts | 360° |
| 2026-05-05 23:23 | 38.73531 | -119.57028 | 21368 ft | 299 kts | 0° |
| 2026-05-05 23:23 | 38.75600 | -119.57242 | 21007 ft | 297 kts | 360° |
| 2026-05-05 23:24 | 38.77659 | -119.57458 | 20651 ft | 295 kts | 0° |
| 2026-05-05 23:24 | 38.79696 | -119.57673 | 20305 ft | 294 kts | 359° |
| 2026-05-05 23:24 | 38.81729 | -119.57894 | 19945 ft | 292 kts | 359° |
| 2026-05-05 23:24 | 38.83746 | -119.58111 | 19611 ft | 290 kts | 359° |
| 2026-05-05 23:25 | 38.85756 | -119.58328 | 19270 ft | 290 kts | 359° |
| 2026-05-05 23:25 | 38.87746 | -119.58541 | 18933 ft | 289 kts | 359° |
| 2026-05-05 23:25 | 38.89749 | -119.58756 | 18585 ft | 289 kts | 359° |
| 2026-05-05 23:25 | 38.91729 | -119.58967 | 18226 ft | 289 kts | 359° |
| 2026-05-05 23:26 | 38.93734 | -119.59182 | 17830 ft | 289 kts | 359° |
| 2026-05-05 23:26 | 38.95731 | -119.59396 | 17460 ft | 287 kts | 359° |
| 2026-05-05 23:26 | 38.97723 | -119.59610 | 17104 ft | 286 kts | 359° |
| 2026-05-05 23:26 | 38.99703 | -119.59823 | 16754 ft | 285 kts | 359° |
| 2026-05-05 23:27 | 39.01673 | -119.60035 | 16402 ft | 283 kts | 359° |
| 2026-05-05 23:27 | 39.03629 | -119.60245 | 16063 ft | 282 kts | 358° |
| 2026-05-05 23:27 | 39.05582 | -119.60455 | 15716 ft | 281 kts | 358° |
| 2026-05-05 23:27 | 39.07532 | -119.60665 | 15361 ft | 280 kts | 358° |
| 2026-05-05 23:28 | 39.09469 | -119.60873 | 15024 ft | 279 kts | 358° |
| 2026-05-05 23:28 | 39.11404 | -119.61082 | 14689 ft | 278 kts | 358° |
| 2026-05-05 23:28 | 39.13328 | -119.61289 | 14359 ft | 278 kts | 358° |
| 2026-05-05 23:28 | 39.15240 | -119.61495 | 14018 ft | 278 kts | 358° |
| 2026-05-05 23:29 | 39.17169 | -119.61702 | 13652 ft | 279 kts | 358° |
| 2026-05-05 23:29 | 39.18460 | -119.61840 | 13406 ft | 279 kts | 358° |
| 2026-05-05 23:29 | 39.20396 | -119.62049 | 13042 ft | 280 kts | 357° |
| 2026-05-05 23:29 | 39.22326 | -119.62259 | 12688 ft | 278 kts | 357° |
| 2026-05-05 23:30 | 39.24258 | -119.62468 | 12338 ft | 277 kts | 357° |
| 2026-05-05 23:30 | 39.26175 | -119.62676 | 12002 ft | 276 kts | 356° |
| 2026-05-05 23:30 | 39.28092 | -119.62884 | 11646 ft | 275 kts | 356° |
| 2026-05-05 23:30 | 39.29989 | -119.63089 | 11304 ft | 274 kts | 356° |
| 2026-05-05 23:31 | 39.31891 | -119.63295 | 10971 ft | 274 kts | 356° |
| 2026-05-05 23:31 | 39.33784 | -119.63500 | 10626 ft | 273 kts | 356° |
| 2026-05-05 23:31 | 39.35684 | -119.63707 | 10266 ft | 273 kts | 356° |
| 2026-05-05 23:31 | 39.37564 | -119.63911 | 10064 ft | 267 kts | 355° |
| 2026-05-05 23:32 | 39.39421 | -119.64111 | 9708 ft | 268 kts | 355° |
| 2026-05-05 23:32 | 39.41278 | -119.64315 | 9393 ft | 266 kts | 355° |
| 2026-05-05 23:32 | 39.43118 | -119.64514 | 9069 ft | 265 kts | 356° |
| 2026-05-05 23:32 | 39.44956 | -119.64710 | 8747 ft | 265 kts | 355° |
| 2026-05-05 23:33 | 39.46784 | -119.64910 | 8559 ft | 260 kts | 355° |
| 2026-05-05 23:33 | 39.48554 | -119.65104 | 8420 ft | 252 kts | 356° |
| 2026-05-05 23:33 | 39.50271 | -119.65292 | 8311 ft | 244 kts | 356° |
| 2026-05-05 23:33 | 39.51942 | -119.65474 | 8194 ft | 234 kts | 355° |
| 2026-05-05 23:34 | 39.53458 | -119.66025 | 7994 ft | 230 kts | 327° |
| 2026-05-05 23:34 | 39.54718 | -119.67327 | 7788 ft | 229 kts | 321° |
| 2026-05-05 23:34 | 39.55959 | -119.68671 | 7489 ft | 236 kts | 322° |
| 2026-05-05 23:34 | 39.57222 | -119.70028 | 7215 ft | 234 kts | 321° |
| 2026-05-05 23:35 | 39.58435 | -119.71331 | 6935 ft | 226 kts | 323° |
| 2026-05-05 23:35 | 39.59618 | -119.72605 | 6639 ft | 216 kts | 322° |
| 2026-05-05 23:35 | 39.60736 | -119.73831 | 6427 ft | 203 kts | 317° |
| 2026-05-05 23:35 | 39.61329 | -119.75395 | 6159 ft | 195 kts | 266° |
| 2026-05-05 23:36 | 39.60790 | -119.76887 | 6130 ft | 189 kts | 216° |
| 2026-05-05 23:36 | 39.59454 | -119.77308 | 6276 ft | 212 kts | 167° |
| 2026-05-05 23:36 | 39.58002 | -119.76562 | 6086 ft | 237 kts | 154° |
| 2026-05-05 23:36 | 39.56438 | -119.76315 | 5749 ft | 223 kts | 195° |
| 2026-05-05 23:37 | 39.55161 | -119.77231 | 5693 ft | 193 kts | 220° |
| 2026-05-05 23:37 | 39.54325 | -119.78532 | 5718 ft | 199 kts | 252° |
| 2026-05-05 23:37 | 39.54346 | -119.80351 | 6156 ft | 210 kts | 297° |
| 2026-05-05 23:37 | 39.55270 | -119.81680 | 6486 ft | 196 kts | 335° |
| 2026-05-05 23:38 | 39.56595 | -119.81948 | 6460 ft | 200 kts | 9° |
| 2026-05-05 23:38 | 39.57949 | -119.81603 | 6654 ft | 194 kts | 13° |
| 2026-05-05 23:38 | 39.59214 | -119.81118 | 6878 ft | 192 kts | 28° |
| 2026-05-05 23:38 | 39.60125 | -119.79810 | 6656 ft | 212 kts | 67° |
| 2026-05-05 23:39 | 39.60142 | -119.77837 | 6171 ft | 241 kts | 109° |
| 2026-05-05 23:39 | 39.59086 | -119.76146 | 5881 ft | 245 kts | 148° |
| 2026-05-05 23:39 | 39.57519 | -119.75553 | 5735 ft | 224 kts | 172° |
| 2026-05-05 23:39 | 39.56073 | -119.75146 | 5929 ft | 205 kts | 156° |
| 2026-05-05 23:40 | 39.54867 | -119.74126 | 5423 ft | 222 kts | 133° |
| 2026-05-05 23:40 | 39.53805 | -119.72621 | 5053 ft | 226 kts | 120° |
| 2026-05-05 23:40 | 39.53408 | -119.70830 | 5328 ft | 197 kts | 84° |
| 2026-05-05 23:40 | 39.53860 | -119.69330 | 5515 ft | 171 kts | 43° |
| 2026-05-05 23:41 | 39.54846 | -119.68681 | 5479 ft | 163 kts | 1° |
| 2026-05-05 23:41 | 39.56121 | -119.68800 | 5558 ft | 200 kts | 353° |
| 2026-05-05 23:41 | 39.57479 | -119.69011 | 5974 ft | 197 kts | 353° |
| 2026-05-05 23:41 | 39.58821 | -119.69252 | 5957 ft | 190 kts | 353° |
| 2026-05-05 23:42 | 39.60045 | -119.69738 | 5960 ft | 187 kts | 323° |
| 2026-05-05 23:42 | 39.60786 | -119.71088 | 5950 ft | 192 kts | 286° |
| 2026-05-05 23:42 | 39.60748 | -119.72835 | 5718 ft | 197 kts | 254° |
| 2026-05-05 23:42 | 39.60317 | -119.74516 | 5520 ft | 196 kts | 251° |
| 2026-05-05 23:43 | 39.59682 | -119.76029 | 5248 ft | 192 kts | 218° |
| 2026-05-05 23:43 | 39.58511 | -119.76662 | 5289 ft | 180 kts | 194° |
| 2026-05-05 23:43 | 39.57226 | -119.76847 | 5338 ft | 189 kts | 183° |
| 2026-05-05 23:43 | 39.55938 | -119.76807 | 5245 ft | 181 kts | 174° |
| 2026-05-05 23:44 | 39.54688 | -119.76659 | 5143 ft | 181 kts | 175° |
| 2026-05-05 23:44 | 39.53441 | -119.76653 | 4886 ft | 177 kts | 185° |
| 2026-05-05 23:44 | 39.52221 | -119.76673 | 4657 ft | 179 kts | 181° |
| 2026-05-05 23:44 | 39.50983 | -119.76674 | 4413 ft | 170 kts | 182° |
| 2026-05-05 23:45 | 39.49961 | -119.76678 | 4407 ft | 117 kts | 180° |
| 2026-05-05 23:45 | 39.49404 | -119.76677 | 4411 ft | 54 kts | 180° |
| 2026-05-05 23:45 | 39.49080 | -119.76681 | 4408 ft | 40 kts | 179° |
| 2026-05-05 23:45 | 39.48925 | -119.76743 | 4404 ft | 22 kts | 263° |
| 2026-05-05 23:46 | 39.48928 | -119.76935 | 4404 ft | 21 kts | 268° |
| 2026-05-05 23:46 | 39.48925 | -119.77095 | 4404 ft | 16 kts | 269° |
| 2026-05-05 23:46 | 39.49001 | -119.77155 | 4406 ft | 15 kts | 0° |
| 2026-05-05 23:46 | 39.49104 | -119.77155 | 4408 ft | 15 kts | 0° |
| 2026-05-05 23:47 | 39.49203 | -119.77155 | 4408 ft | 14 kts | 0° |
| 2026-05-05 23:47 | 39.49322 | -119.77155 | 4405 ft | 20 kts | 0° |
| 2026-05-05 23:47 | 39.49469 | -119.77156 | 4408 ft | 21 kts | 359° |
| 2026-05-05 23:47 | 39.49613 | -119.77154 | 4407 ft | 20 kts | 1° |
| 2026-05-05 23:48 | 39.49751 | -119.77153 | 4406 ft | 20 kts | 0° |
| 2026-05-05 23:48 | 39.49886 | -119.77153 | 4409 ft | 19 kts | 360° |
| 2026-05-05 23:48 | 39.50018 | -119.77153 | 4408 ft | 20 kts | 360° |
| 2026-05-05 23:48 | 39.50166 | -119.77153 | 4409 ft | 21 kts | 1° |
| 2026-05-05 23:49 | 39.50311 | -119.77153 | 4411 ft | 20 kts | 359° |
| 2026-05-05 23:49 | 39.50447 | -119.77152 | 4408 ft | 15 kts | 0° |
| 2026-05-05 23:49 | 39.50524 | -119.77153 | 4408 ft | 2 kts | 0° |
| 2026-05-05 23:49 | 39.50537 | -119.77157 | 4409 ft | 3 kts | 334° |
| 2026-05-05 23:50 | 39.50531 | -119.77202 | 4409 ft | 6 kts | 238° |
| 2026-05-05 23:50 | 39.50523 | -119.77219 | 4409 ft | 1 kts | 243° |
| 2026-05-05 23:50 | 39.50521 | -119.77225 | 4409 ft | 0 kts | 243° |